sensor_id;sensor_type;location;lat;lon;timestamp;pressure;altitude;pressure_sealevel;temperature;humidity
59337;BME280;45115;52.002;4.686;2023-08-31T00:01:16;65058.88;;;12.42;100.00
59337;BME280;45115;52.002;4.686;2023-08-31T00:03:43;65068.41;;;12.48;100.00
59337;BME280;45115;52.002;4.686;2023-08-31T00:06:10;65067.97;;;12.50;100.00
59337;BME280;45115;52.002;4.686;2023-08-31T00:08:37;65084.16;;;12.60;100.00
59337;BME280;45115;52.002;4.686;2023-08-31T00:11:04;65078.28;;;12.62;100.00
59337;BME280;45115;52.002;4.686;2023-08-31T00:13:32;65084.28;;;12.62;100.00
59337;BME280;45115;52.002;4.686;2023-08-31T00:15:58;65089.38;;;12.67;100.00
59337;BME280;45115;52.002;4.686;2023-08-31T00:18:25;65104.72;;;12.80;100.00
59337;BME280;45115;52.002;4.686;2023-08-31T00:20:53;65114.44;;;12.91;100.00
59337;BME280;45115;52.002;4.686;2023-08-31T00:23:19;65117.97;;;12.97;100.00
59337;BME280;45115;52.002;4.686;2023-08-31T00:25:46;65139.22;;;13.08;100.00
59337;BME280;45115;52.002;4.686;2023-08-31T00:28:14;65147.19;;;13.15;100.00
59337;BME280;45115;52.002;4.686;2023-08-31T00:30:46;65145.00;;;13.16;100.00
59337;BME280;45115;52.002;4.686;2023-08-31T00:33:14;65137.19;;;13.11;100.00
59337;BME280;45115;52.002;4.686;2023-08-31T00:35:41;65147.84;;;13.18;100.00
59337;BME280;45115;52.002;4.686;2023-08-31T00:38:11;65137.06;;;13.09;100.00
59337;BME280;45115;52.002;4.686;2023-08-31T00:40:41;65128.66;;;13.04;100.00
59337;BME280;45115;52.002;4.686;2023-08-31T00:43:11;65133.09;;;13.05;100.00
59337;BME280;45115;52.002;4.686;2023-08-31T00:45:38;65127.38;;;13.00;100.00
59337;BME280;45115;52.002;4.686;2023-08-31T00:48:07;65122.97;;;12.99;100.00
59337;BME280;45115;52.002;4.686;2023-08-31T00:50:34;65117.19;;;12.91;100.00
59337;BME280;45115;52.002;4.686;2023-08-31T00:53:02;65113.78;;;12.88;100.00
59337;BME280;45115;52.002;4.686;2023-08-31T00:55:31;65108.13;;;12.83;100.00
59337;BME280;45115;52.002;4.686;2023-08-31T00:57:58;65095.63;;;12.72;100.00
59337;BME280;45115;52.002;4.686;2023-08-31T01:00:32;65078.72;;;12.60;100.00
59337;BME280;45115;52.002;4.686;2023-08-31T01:03:05;65062.75;;;12.43;100.00
59337;BME280;45115;52.002;4.686;2023-08-31T01:05:42;65049.25;;;12.33;100.00
59337;BME280;45115;52.002;4.686;2023-08-31T01:08:20;65033.94;;;12.20;100.00
59337;BME280;45115;52.002;4.686;2023-08-31T01:10:58;65016.25;;;12.02;100.00
59337;BME280;45115;52.002;4.686;2023-08-31T01:13:30;65010.50;;;11.94;100.00
59337;BME280;45115;52.002;4.686;2023-08-31T01:16:01;65000.84;;;11.86;100.00
59337;BME280;45115;52.002;4.686;2023-08-31T01:18:30;64994.16;;;11.82;100.00
59337;BME280;45115;52.002;4.686;2023-08-31T01:21:05;64983.97;;;11.73;100.00
59337;BME280;45115;52.002;4.686;2023-08-31T01:23:44;64980.69;;;11.73;100.00
59337;BME280;45115;52.002;4.686;2023-08-31T01:26:11;64990.75;;;11.79;100.00
59337;BME280;45115;52.002;4.686;2023-08-31T01:28:38;64994.06;;;11.80;100.00
59337;BME280;45115;52.002;4.686;2023-08-31T01:31:05;64991.44;;;11.82;100.00
59337;BME280;45115;52.002;4.686;2023-08-31T01:33:32;65006.53;;;11.91;100.00
59337;BME280;45115;52.002;4.686;2023-08-31T01:36:04;65025.91;;;12.10;100.00
59337;BME280;45115;52.002;4.686;2023-08-31T01:38:35;65040.53;;;12.21;100.00
59337;BME280;45115;52.002;4.686;2023-08-31T01:41:07;65047.91;;;12.27;100.00
59337;BME280;45115;52.002;4.686;2023-08-31T01:43:36;65061.06;;;12.42;100.00
59337;BME280;45115;52.002;4.686;2023-08-31T01:46:03;65068.53;;;12.51;100.00
59337;BME280;45115;52.002;4.686;2023-08-31T01:48:38;65069.00;;;12.49;100.00
59337;BME280;45115;52.002;4.686;2023-08-31T01:51:04;65055.47;;;12.39;100.00
59337;BME280;45115;52.002;4.686;2023-08-31T01:53:32;65043.47;;;12.26;100.00
59337;BME280;45115;52.002;4.686;2023-08-31T01:56:00;65039.06;;;12.24;100.00
59337;BME280;45115;52.002;4.686;2023-08-31T01:58:28;65044.38;;;12.22;100.00
59337;BME280;45115;52.002;4.686;2023-08-31T02:00:54;65033.38;;;12.19;100.00
59337;BME280;45115;52.002;4.686;2023-08-31T02:03:22;65013.09;;;12.04;100.00
59337;BME280;45115;52.002;4.686;2023-08-31T02:05:48;65015.13;;;12.01;100.00
59337;BME280;45115;52.002;4.686;2023-08-31T02:08:15;65006.19;;;11.95;100.00
59337;BME280;45115;52.002;4.686;2023-08-31T02:10:43;65008.78;;;11.93;100.00
59337;BME280;45115;52.002;4.686;2023-08-31T02:13:10;65008.22;;;11.92;100.00
59337;BME280;45115;52.002;4.686;2023-08-31T02:15:39;65007.88;;;11.97;100.00
59337;BME280;45115;52.002;4.686;2023-08-31T02:18:07;64999.38;;;11.89;100.00
59337;BME280;45115;52.002;4.686;2023-08-31T02:20:34;65008.91;;;11.95;100.00
59337;BME280;45115;52.002;4.686;2023-08-31T02:23:02;65010.59;;;11.97;100.00
59337;BME280;45115;52.002;4.686;2023-08-31T02:25:28;65017.41;;;12.03;100.00
59337;BME280;45115;52.002;4.686;2023-08-31T02:27:55;65010.13;;;11.99;100.00
59337;BME280;45115;52.002;4.686;2023-08-31T02:30:22;65006.06;;;11.93;100.00
59337;BME280;45115;52.002;4.686;2023-08-31T02:32:50;64992.47;;;11.81;100.00
59337;BME280;45115;52.002;4.686;2023-08-31T02:35:16;64979.88;;;11.67;100.00
59337;BME280;45115;52.002;4.686;2023-08-31T02:37:43;64981.13;;;11.71;100.00
59337;BME280;45115;52.002;4.686;2023-08-31T02:40:11;64962.53;;;11.57;100.00
59337;BME280;45115;52.002;4.686;2023-08-31T02:42:37;64955.63;;;11.48;100.00
59337;BME280;45115;52.002;4.686;2023-08-31T02:45:05;64947.00;;;11.38;100.00
59337;BME280;45115;52.002;4.686;2023-08-31T02:47:32;64947.69;;;11.41;100.00
59337;BME280;45115;52.002;4.686;2023-08-31T02:50:00;64947.69;;;11.41;100.00
59337;BME280;45115;52.002;4.686;2023-08-31T02:52:27;64945.41;;;11.39;100.00
59337;BME280;45115;52.002;4.686;2023-08-31T02:54:53;64944.06;;;11.33;100.00
59337;BME280;45115;52.002;4.686;2023-08-31T02:57:21;64930.81;;;11.28;100.00
59337;BME280;45115;52.002;4.686;2023-08-31T02:59:49;64923.22;;;11.17;100.00
59337;BME280;45115;52.002;4.686;2023-08-31T03:02:16;64919.38;;;11.16;100.00
59337;BME280;45115;52.002;4.686;2023-08-31T03:04:43;64918.16;;;11.12;100.00
59337;BME280;45115;52.002;4.686;2023-08-31T03:07:11;64911.47;;;11.09;100.00
59337;BME280;45115;52.002;4.686;2023-08-31T03:09:41;64912.59;;;11.10;100.00
59337;BME280;45115;52.002;4.686;2023-08-31T03:12:07;64912.59;;;11.10;100.00
59337;BME280;45115;52.002;4.686;2023-08-31T03:14:34;64914.94;;;11.14;100.00
59337;BME280;45115;52.002;4.686;2023-08-31T03:17:01;64921.19;;;11.20;100.00
59337;BME280;45115;52.002;4.686;2023-08-31T03:19:28;64935.78;;;11.31;100.00
59337;BME280;45115;52.002;4.686;2023-08-31T03:21:55;64951.09;;;11.44;100.00
59337;BME280;45115;52.002;4.686;2023-08-31T03:24:23;64951.19;;;11.47;100.00
59337;BME280;45115;52.002;4.686;2023-08-31T03:26:50;64960.16;;;11.52;100.00
59337;BME280;45115;52.002;4.686;2023-08-31T03:29:17;64957.31;;;11.50;100.00
59337;BME280;45115;52.002;4.686;2023-08-31T03:31:44;64943.72;;;11.38;100.00
59337;BME280;45115;52.002;4.686;2023-08-31T03:34:10;64940.91;;;11.35;100.00
59337;BME280;45115;52.002;4.686;2023-08-31T03:36:37;64932.41;;;11.27;100.00
59337;BME280;45115;52.002;4.686;2023-08-31T03:39:04;64919.38;;;11.16;100.00
59337;BME280;45115;52.002;4.686;2023-08-31T03:41:33;64913.16;;;11.10;100.00
59337;BME280;45115;52.002;4.686;2023-08-31T03:44:01;64912.47;;;11.07;100.00
59337;BME280;45115;52.002;4.686;2023-08-31T03:46:27;64909.28;;;11.09;100.00
59337;BME280;45115;52.002;4.686;2023-08-31T03:48:54;64914.28;;;11.11;100.00
59337;BME280;45115;52.002;4.686;2023-08-31T03:51:21;64927.19;;;11.20;100.00
59337;BME280;45115;52.002;4.686;2023-08-31T03:53:47;64917.66;;;11.14;100.00
59337;BME280;45115;52.002;4.686;2023-08-31T03:56:14;64927.19;;;11.20;100.00
59337;BME280;45115;52.002;4.686;2023-08-31T03:58:43;64925.59;;;11.21;100.00
59337;BME280;45115;52.002;4.686;2023-08-31T04:01:09;64922.78;;;11.19;100.00
59337;BME280;45115;52.002;4.686;2023-08-31T04:03:38;64910.44;;;11.10;100.00
59337;BME280;45115;52.002;4.686;2023-08-31T04:06:04;64913.03;;;11.08;100.00
59337;BME280;45115;52.002;4.686;2023-08-31T04:08:31;64912.13;;;11.12;100.00
59337;BME280;45115;52.002;4.686;2023-08-31T04:10:58;64921.53;;;11.15;100.00
59337;BME280;45115;52.002;4.686;2023-08-31T04:13:25;64900.69;;;10.99;100.00
59337;BME280;45115;52.002;4.686;2023-08-31T04:15:54;64887.13;;;10.87;100.00
59337;BME280;45115;52.002;4.686;2023-08-31T04:18:21;64897.31;;;10.96;100.00
59337;BME280;45115;52.002;4.686;2023-08-31T04:20:49;64892.66;;;10.90;100.00
59337;BME280;45115;52.002;4.686;2023-08-31T04:23:16;64896.72;;;10.96;100.00
59337;BME280;45115;52.002;4.686;2023-08-31T04:25:44;64898.88;;;10.95;100.00
59337;BME280;45115;52.002;4.686;2023-08-31T04:28:11;64897.31;;;10.96;100.00
59337;BME280;45115;52.002;4.686;2023-08-31T04:30:41;64911.78;;;11.04;100.00
59337;BME280;45115;52.002;4.686;2023-08-31T04:33:09;64904.78;;;11.05;100.00
59337;BME280;45115;52.002;4.686;2023-08-31T04:35:36;64912.00;;;11.09;100.00
59337;BME280;45115;52.002;4.686;2023-08-31T04:38:03;64919.25;;;11.13;100.00
59337;BME280;45115;52.002;4.686;2023-08-31T04:40:30;64929.56;;;11.25;100.00
59337;BME280;45115;52.002;4.686;2023-08-31T04:42:57;64926.28;;;11.24;100.00
59337;BME280;45115;52.002;4.686;2023-08-31T04:45:24;64936.38;;;11.31;100.00
59337;BME280;45115;52.002;4.686;2023-08-31T04:47:51;64941.81;;;11.31;100.00
59337;BME280;45115;52.002;4.686;2023-08-31T04:50:19;64938.50;;;11.31;100.00
59337;BME280;45115;52.002;4.686;2023-08-31T04:52:46;64935.69;;;11.28;100.00
59337;BME280;45115;52.002;4.686;2023-08-31T04:55:13;64933.53;;;11.28;100.00
59337;BME280;45115;52.002;4.686;2023-08-31T04:57:40;64934.00;;;11.27;100.00
59337;BME280;45115;52.002;4.686;2023-08-31T05:00:07;64926.16;;;11.22;100.00
59337;BME280;45115;52.002;4.686;2023-08-31T05:02:35;64940.22;;;11.32;100.00
59337;BME280;45115;52.002;4.686;2023-08-31T05:05:02;64929.69;;;11.27;100.00
59337;BME280;45115;52.002;4.686;2023-08-31T05:07:31;64939.19;;;11.34;100.00
59337;BME280;45115;52.002;4.686;2023-08-31T05:09:57;64948.38;;;11.44;100.00
59337;BME280;45115;52.002;4.686;2023-08-31T05:12:24;64967.50;;;11.59;100.00
59337;BME280;45115;52.002;4.686;2023-08-31T05:15:03;64965.69;;;11.55;100.00
59337;BME280;45115;52.002;4.686;2023-08-31T05:17:32;64982.94;;;11.75;100.00
59337;BME280;45115;52.002;4.686;2023-08-31T05:19:59;64995.75;;;11.81;100.00
59337;BME280;45115;52.002;4.686;2023-08-31T05:22:26;64992.56;;;11.83;100.00
59337;BME280;45115;52.002;4.686;2023-08-31T05:24:54;65001.53;;;11.89;100.00
59337;BME280;45115;52.002;4.686;2023-08-31T05:27:21;65015.13;;;12.01;100.00
59337;BME280;45115;52.002;4.686;2023-08-31T05:29:48;65033.84;;;12.17;100.00
59337;BME280;45115;52.002;4.686;2023-08-31T05:32:14;65026.00;;;12.13;100.00
59337;BME280;45115;52.002;4.686;2023-08-31T05:34:41;65015.81;;;12.04;100.00
59337;BME280;45115;52.002;4.686;2023-08-31T05:37:08;65006.19;;;11.95;100.00
59337;BME280;45115;52.002;4.686;2023-08-31T05:39:34;65014.00;;;12.00;100.00
59337;BME280;45115;52.002;4.686;2023-08-31T05:42:02;65009.47;;;11.96;100.00
59337;BME280;45115;52.002;4.686;2023-08-31T05:44:29;65010.13;;;11.99;100.00
59337;BME280;45115;52.002;4.686;2023-08-31T05:46:56;65009.00;;;11.98;100.00
59337;BME280;45115;52.002;4.686;2023-08-31T05:49:23;65009.00;;;11.98;100.00
59337;BME280;45115;52.002;4.686;2023-08-31T05:51:49;65029.75;;;12.11;100.00
59337;BME280;45115;52.002;4.686;2023-08-31T05:54:17;65023.63;;;12.08;100.00
59337;BME280;45115;52.002;4.686;2023-08-31T05:56:43;65028.94;;;12.18;100.00
59337;BME280;45115;52.002;4.686;2023-08-31T05:59:11;65041.78;;;12.24;100.00
59337;BME280;45115;52.002;4.686;2023-08-31T06:01:38;65049.25;;;12.33;100.00
59337;BME280;45115;52.002;4.686;2023-08-31T06:04:05;65054.91;;;12.38;100.00
59337;BME280;45115;52.002;4.686;2023-08-31T06:06:31;65067.75;;;12.45;100.00
59337;BME280;45115;52.002;4.686;2023-08-31T06:08:59;65060.03;;;12.43;100.00
59337;BME280;45115;52.002;4.686;2023-08-31T06:11:25;65064.31;;;12.42;100.00
59337;BME280;45115;52.002;4.686;2023-08-31T06:13:52;65049.16;;;12.31;100.00
59337;BME280;45115;52.002;4.686;2023-08-31T06:16:20;65043.47;;;12.26;100.00
59337;BME280;45115;52.002;4.686;2023-08-31T06:18:47;65040.63;;;12.23;100.00
59337;BME280;45115;52.002;4.686;2023-08-31T06:21:13;65056.50;;;12.38;100.00
59337;BME280;45115;52.002;4.686;2023-08-31T06:23:40;65090.97;;;12.66;100.00
59337;BME280;45115;52.002;4.686;2023-08-31T06:26:06;65112.53;;;12.85;100.00
59337;BME280;45115;52.002;4.686;2023-08-31T06:28:33;65121.28;;;12.97;100.00
59337;BME280;45115;52.002;4.686;2023-08-31T06:31:00;65133.09;;;13.05;100.00
59337;BME280;45115;52.002;4.686;2023-08-31T06:33:28;65138.66;;;13.08;100.00
59337;BME280;45115;52.002;4.686;2023-08-31T06:35:55;65146.16;;;13.17;100.00
59337;BME280;45115;52.002;4.686;2023-08-31T06:38:21;65174.50;;;13.42;100.00
59337;BME280;45115;52.002;4.686;2023-08-31T06:40:48;65186.66;;;13.58;100.00
59337;BME280;45115;52.002;4.686;2023-08-31T06:43:15;65194.28;;;13.57;100.00
59337;BME280;45115;52.002;4.686;2023-08-31T06:45:42;65214.25;;;13.77;100.00
59337;BME280;45115;52.002;4.686;2023-08-31T06:48:08;65252.41;;;14.13;100.00
59337;BME280;45115;52.002;4.686;2023-08-31T06:50:36;65283.09;;;14.40;100.00
59337;BME280;45115;52.002;4.686;2023-08-31T06:53:03;65314.78;;;14.66;100.00
59337;BME280;45115;52.002;4.686;2023-08-31T06:55:30;65313.09;;;14.65;100.00
59337;BME280;45115;52.002;4.686;2023-08-31T06:57:59;65306.97;;;14.62;100.00
59337;BME280;45115;52.002;4.686;2023-08-31T07:00:26;65289.34;;;14.46;100.00
59337;BME280;45115;52.002;4.686;2023-08-31T07:02:52;65324.56;;;14.77;100.00
59337;BME280;45115;52.002;4.686;2023-08-31T07:05:19;65345.03;;;14.95;100.00
59337;BME280;45115;52.002;4.686;2023-08-31T07:07:53;65381.41;;;15.27;100.00
59337;BME280;45115;52.002;4.686;2023-08-31T07:10:20;65424.91;;;15.58;100.00
59337;BME280;45115;52.002;4.686;2023-08-31T07:12:47;65425.13;;;15.63;100.00
59337;BME280;45115;52.002;4.686;2023-08-31T07:15:14;65430.25;;;15.68;100.00
59337;BME280;45115;52.002;4.686;2023-08-31T07:17:40;65507.75;;;16.39;100.00
59337;BME280;45115;52.002;4.686;2023-08-31T07:20:08;65580.63;;;17.03;100.00
59337;BME280;45115;52.002;4.686;2023-08-31T07:22:36;65608.66;;;17.30;97.41
59337;BME280;45115;52.002;4.686;2023-08-31T07:25:06;65598.88;;;17.19;93.45
59337;BME280;45115;52.002;4.686;2023-08-31T07:27:33;65630.66;;;17.45;93.81
59337;BME280;45115;52.002;4.686;2023-08-31T07:30:00;65657.69;;;17.73;91.32
59337;BME280;45115;52.002;4.686;2023-08-31T07:32:28;65650.06;;;17.62;89.91
59337;BME280;45115;52.002;4.686;2023-08-31T07:34:55;65667.84;;;17.80;93.04
59337;BME280;45115;52.002;4.686;2023-08-31T07:37:21;65657.00;;;17.70;94.79
59337;BME280;45115;52.002;4.686;2023-08-31T07:39:48;65646.66;;;17.59;93.65
59337;BME280;45115;52.002;4.686;2023-08-31T07:42:16;65661.56;;;17.74;91.20
59337;BME280;45115;52.002;4.686;2023-08-31T07:44:43;65649.59;;;17.64;88.60
59337;BME280;45115;52.002;4.686;2023-08-31T07:47:09;65658.63;;;17.69;84.46
59337;BME280;45115;52.002;4.686;2023-08-31T07:49:36;65652.44;;;17.66;83.46
59337;BME280;45115;52.002;4.686;2023-08-31T07:52:03;65647.88;;;17.62;82.76
59337;BME280;45115;52.002;4.686;2023-08-31T07:54:30;65683.69;;;17.92;85.64
59337;BME280;45115;52.002;4.686;2023-08-31T07:56:57;65702.03;;;18.10;82.73
59337;BME280;45115;52.002;4.686;2023-08-31T07:59:25;65754.44;;;18.54;78.68
59337;BME280;45115;52.002;4.686;2023-08-31T08:01:52;65761.47;;;18.65;77.04
59337;BME280;45115;52.002;4.686;2023-08-31T08:04:19;65798.66;;;19.00;75.81
59337;BME280;45115;52.002;4.686;2023-08-31T08:06:45;65808.28;;;19.06;77.04
59337;BME280;45115;52.002;4.686;2023-08-31T08:09:12;65836.03;;;19.26;72.97
59337;BME280;45115;52.002;4.686;2023-08-31T08:11:39;65853.84;;;19.44;70.15
59337;BME280;45115;52.002;4.686;2023-08-31T08:14:05;65876.22;;;19.66;70.83
59337;BME280;45115;52.002;4.686;2023-08-31T08:16:33;65843.00;;;19.34;70.61
59337;BME280;45115;52.002;4.686;2023-08-31T08:19:02;65779.06;;;18.78;72.27
59337;BME280;45115;52.002;4.686;2023-08-31T08:21:28;65845.84;;;19.37;71.64
59337;BME280;45115;52.002;4.686;2023-08-31T08:23:55;65840.72;;;19.32;67.99
59337;BME280;45115;52.002;4.686;2023-08-31T08:26:22;65794.47;;;18.91;69.61
59337;BME280;45115;52.002;4.686;2023-08-31T08:28:48;65760.81;;;18.62;70.56
59337;BME280;45115;52.002;4.686;2023-08-31T08:31:15;65816.16;;;19.11;71.72
59337;BME280;45115;52.002;4.686;2023-08-31T08:33:44;65809.88;;;19.05;68.92
59337;BME280;45115;52.002;4.686;2023-08-31T08:36:11;65786.47;;;18.84;68.52
59337;BME280;45115;52.002;4.686;2023-08-31T08:38:38;65798.84;;;18.90;68.18
59337;BME280;45115;52.002;4.686;2023-08-31T08:41:05;65806.34;;;19.00;68.78
59337;BME280;45115;52.002;4.686;2023-08-31T08:43:33;65829.28;;;19.22;68.33
59337;BME280;45115;52.002;4.686;2023-08-31T08:46:04;65859.56;;;19.49;70.39
59337;BME280;45115;52.002;4.686;2023-08-31T08:48:33;65886.41;;;19.72;66.74
59337;BME280;45115;52.002;4.686;2023-08-31T08:51:02;65805.97;;;19.04;69.42
59337;BME280;45115;52.002;4.686;2023-08-31T08:53:30;65782.69;;;18.86;71.23
59337;BME280;45115;52.002;4.686;2023-08-31T08:55:57;65835.00;;;19.27;70.83
59337;BME280;45115;52.002;4.686;2023-08-31T08:58:23;65840.16;;;19.32;70.87
59337;BME280;45115;52.002;4.686;2023-08-31T09:00:51;65859.56;;;19.49;68.18
59337;BME280;45115;52.002;4.686;2023-08-31T09:03:18;65855.47;;;19.43;66.72
59337;BME280;45115;52.002;4.686;2023-08-31T09:05:45;65823.59;;;19.17;66.32
59337;BME280;45115;52.002;4.686;2023-08-31T09:08:13;65750.06;;;18.55;69.19
59337;BME280;45115;52.002;4.686;2023-08-31T09:10:42;65776.13;;;18.73;68.13
59337;BME280;45115;52.002;4.686;2023-08-31T09:13:10;65775.66;;;18.75;68.92
59337;BME280;45115;52.002;4.686;2023-08-31T09:15:43;65826.44;;;19.20;68.53
59337;BME280;45115;52.002;4.686;2023-08-31T09:18:16;65873.38;;;19.63;65.56
59337;BME280;45115;52.002;4.686;2023-08-31T09:20:44;65905.16;;;19.86;61.37
59337;BME280;45115;52.002;4.686;2023-08-31T09:23:12;65898.88;;;19.81;61.38
59337;BME280;45115;52.002;4.686;2023-08-31T09:25:43;65896.69;;;19.81;60.43
59337;BME280;45115;52.002;4.686;2023-08-31T09:28:11;65900.69;;;19.85;62.12
59337;BME280;45115;52.002;4.686;2023-08-31T09:30:38;65885.94;;;19.74;59.73
59337;BME280;45115;52.002;4.686;2023-08-31T09:33:07;65832.72;;;19.25;63.57
59337;BME280;45115;52.002;4.686;2023-08-31T09:35:38;65821.31;;;19.15;63.59
59337;BME280;45115;52.002;4.686;2023-08-31T09:38:07;65869.84;;;19.58;63.71
59337;BME280;45115;52.002;4.686;2023-08-31T09:40:36;65882.50;;;19.71;62.45
59337;BME280;45115;52.002;4.686;2023-08-31T09:43:03;65898.97;;;19.83;64.45
59337;BME280;45115;52.002;4.686;2023-08-31T09:45:30;65904.88;;;19.93;59.34
59337;BME280;45115;52.002;4.686;2023-08-31T09:47:59;65904.88;;;19.93;62.10
59337;BME280;45115;52.002;4.686;2023-08-31T09:50:26;65900.78;;;19.87;59.90
59337;BME280;45115;52.002;4.686;2023-08-31T09:52:55;65908.00;;;19.89;58.78
59337;BME280;45115;52.002;4.686;2023-08-31T09:55:25;65919.63;;;20.04;59.19
59337;BME280;45115;52.002;4.686;2023-08-31T09:57:56;65913.34;;;19.98;58.72
59337;BME280;45115;52.002;4.686;2023-08-31T10:00:24;65916.09;;;19.98;60.65
59337;BME280;45115;52.002;4.686;2023-08-31T10:02:53;65950.50;;;20.31;57.58
59337;BME280;45115;52.002;4.686;2023-08-31T10:05:21;65906.38;;;19.90;59.55
59337;BME280;45115;52.002;4.686;2023-08-31T10:07:48;65940.78;;;20.23;59.71
59337;BME280;45115;52.002;4.686;2023-08-31T10:10:15;65948.22;;;20.29;58.75
59337;BME280;45115;52.002;4.686;2023-08-31T10:12:44;65985.38;;;20.62;58.70
59337;BME280;45115;52.002;4.686;2023-08-31T10:15:14;65987.66;;;20.64;58.07
59337;BME280;45115;52.002;4.686;2023-08-31T10:17:42;65976.69;;;20.52;59.25
59337;BME280;45115;52.002;4.686;2023-08-31T10:20:10;66013.94;;;20.87;60.73
59337;BME280;45115;52.002;4.686;2023-08-31T10:22:38;66013.25;;;20.84;57.62
59337;BME280;45115;52.002;4.686;2023-08-31T10:25:05;65978.41;;;20.53;55.78
59337;BME280;45115;52.002;4.686;2023-08-31T10:27:36;65976.69;;;20.52;58.68
59337;BME280;45115;52.002;4.686;2023-08-31T10:30:26;65958.50;;;20.38;57.51
59337;BME280;45115;52.002;4.686;2023-08-31T10:33:22;65978.03;;;20.58;55.24
59337;BME280;45115;52.002;4.686;2023-08-31T10:35:52;65950.41;;;20.29;55.71
59337;BME280;45115;52.002;4.686;2023-08-31T10:38:27;65967.06;;;20.46;56.14
59337;BME280;45115;52.002;4.686;2023-08-31T10:41:16;65884.22;;;19.73;58.12
59337;BME280;45115;52.002;4.686;2023-08-31T10:43:47;65932.75;;;20.16;59.33
59337;BME280;45115;52.002;4.686;2023-08-31T10:46:18;65954.97;;;20.33;59.18
59337;BME280;45115;52.002;4.686;2023-08-31T10:48:51;66026.50;;;20.98;57.75
59337;BME280;45115;52.002;4.686;2023-08-31T10:51:21;66059.59;;;21.25;54.65
59337;BME280;45115;52.002;4.686;2023-08-31T10:53:48;65975.66;;;20.53;52.62
59337;BME280;45115;52.002;4.686;2023-08-31T10:56:16;65892.09;;;19.77;55.18
59337;BME280;45115;52.002;4.686;2023-08-31T10:58:57;65856.25;;;19.48;56.58
59337;BME280;45115;52.002;4.686;2023-08-31T11:01:54;65860.72;;;19.50;57.75
59337;BME280;45115;52.002;4.686;2023-08-31T11:04:22;65927.63;;;20.11;57.59
59337;BME280;45115;52.002;4.686;2023-08-31T11:07:14;65934.28;;;20.12;57.61
59337;BME280;45115;52.002;4.686;2023-08-31T11:09:40;65992.69;;;20.66;55.19
59337;BME280;45115;52.002;4.686;2023-08-31T11:12:08;66048.19;;;21.15;54.85
59337;BME280;45115;52.002;4.686;2023-08-31T11:14:35;66091.06;;;21.52;55.95
59337;BME280;45115;52.002;4.686;2023-08-31T11:17:04;66100.31;;;21.63;54.02
59337;BME280;45115;52.002;4.686;2023-08-31T11:19:32;66034.06;;;21.07;52.79
59337;BME280;45115;52.002;4.686;2023-08-31T11:22:01;66019.56;;;20.89;52.93
59337;BME280;45115;52.002;4.686;2023-08-31T11:24:28;66049.88;;;21.16;54.74
59337;BME280;45115;52.002;4.686;2023-08-31T11:26:55;66069.91;;;21.34;54.58
59337;BME280;45115;52.002;4.686;2023-08-31T11:29:22;66059.59;;;21.25;51.90
59337;BME280;45115;52.002;4.686;2023-08-31T11:31:49;66066.56;;;21.33;52.03
59337;BME280;45115;52.002;4.686;2023-08-31T11:34:18;66103.56;;;21.61;51.82
59337;BME280;45115;52.002;4.686;2023-08-31T11:36:46;66108.78;;;21.68;53.36
59337;BME280;45115;52.002;4.686;2023-08-31T11:39:13;66163.19;;;22.15;52.13
59337;BME280;45115;52.002;4.686;2023-08-31T11:41:42;66185.59;;;22.38;50.48
59337;BME280;45115;52.002;4.686;2023-08-31T11:44:09;66167.09;;;22.16;49.57
59337;BME280;45115;52.002;4.686;2023-08-31T11:46:36;66154.59;;;22.08;49.45
59337;BME280;45115;52.002;4.686;2023-08-31T11:49:04;66148.97;;;22.05;50.58
59337;BME280;45115;52.002;4.686;2023-08-31T11:51:33;66200.41;;;22.48;50.75
59337;BME280;45115;52.002;4.686;2023-08-31T11:54:00;66189.59;;;22.41;48.65
59337;BME280;45115;52.002;4.686;2023-08-31T11:56:38;66235.16;;;22.74;48.43
59337;BME280;45115;52.002;4.686;2023-08-31T11:59:07;66192.97;;;22.42;47.46
59337;BME280;45115;52.002;4.686;2023-08-31T12:01:38;66189.06;;;22.41;48.87
59337;BME280;45115;52.002;4.686;2023-08-31T12:04:09;66180.34;;;22.31;48.44
59337;BME280;45115;52.002;4.686;2023-08-31T12:06:39;66139.25;;;21.97;48.64
59337;BME280;45115;52.002;4.686;2023-08-31T12:09:07;66087.16;;;21.51;49.24
59337;BME280;45115;52.002;4.686;2023-08-31T12:11:34;66108.13;;;21.65;50.22
59337;BME280;45115;52.002;4.686;2023-08-31T12:14:02;66037.22;;;21.02;50.30
59337;BME280;45115;52.002;4.686;2023-08-31T12:16:33;66013.25;;;20.84;50.58
59337;BME280;45115;52.002;4.686;2023-08-31T12:19:05;65985.38;;;20.62;50.68
59337;BME280;45115;52.002;4.686;2023-08-31T12:21:32;65994.41;;;20.67;52.02
59337;BME280;45115;52.002;4.686;2023-08-31T12:24:00;65960.69;;;20.38;52.67
59337;BME280;45115;52.002;4.686;2023-08-31T12:26:29;65981.44;;;20.61;52.90
59337;BME280;45115;52.002;4.686;2023-08-31T12:28:57;66018.41;;;20.88;54.07
59337;BME280;45115;52.002;4.686;2023-08-31T12:31:24;65988.00;;;20.59;51.60
59337;BME280;45115;52.002;4.686;2023-08-31T12:33:51;65986.97;;;20.61;52.88
59337;BME280;45115;52.002;4.686;2023-08-31T12:36:17;66026.97;;;20.96;51.22
59337;BME280;45115;52.002;4.686;2023-08-31T12:38:44;65998.97;;;20.71;53.38
59337;BME280;45115;52.002;4.686;2023-08-31T12:41:12;65999.47;;;20.69;54.40
59337;BME280;45115;52.002;4.686;2023-08-31T12:43:39;66047.59;;;21.14;52.09
59337;BME280;45115;52.002;4.686;2023-08-31T12:46:06;66073.91;;;21.37;51.89
59337;BME280;45115;52.002;4.686;2023-08-31T12:48:34;66112.25;;;21.71;50.27
59337;BME280;45115;52.002;4.686;2023-08-31T12:51:01;66153.56;;;22.09;49.51
59337;BME280;45115;52.002;4.686;2023-08-31T12:53:28;66178.16;;;22.31;50.05
59337;BME280;45115;52.002;4.686;2023-08-31T12:55:54;66155.28;;;22.11;49.08
59337;BME280;45115;52.002;4.686;2023-08-31T12:58:23;66158.03;;;22.11;50.28
59337;BME280;45115;52.002;4.686;2023-08-31T13:00:49;66102.50;;;21.62;50.18